Aérodrome :
LOGIN :

S'inscrire | Disclaimer

   EN    FR    IT 

 










Légende :    VFR   VFR Marginal   IFR   IFR Intensif   IFR Très Intensif
Visi : 
Plafond : 
>= 8 km
>= 3000ft
5 à 8 km
1000 à 3000 ft
1500m à 5 km
500 à 1000 ft
800 à 1500m
200 à 500 ft
< 800m
< 200 ft
Symboles :   Orages  Brouillard  Fortes neiges  Fortes précipitations  Vent > 20 kt
SIGMETs :   Divers  Orages  Givrage  Turbulence  Onde Orograph.  Cendres Volcan.







- Altitude de l'aérodrome : 203 ft
- Code IATA : XMJ
- Voir les cartes d'approche


LFBM - Mont-De-Marsan

DERNIER METAR :
  • 270530Z AUTO 28004KT 2700 +DZ BR OVC003 13/13 Q1018 BECMG 9999 NSW BKN005

METARs EXPIRÉS :
  • 270500Z AUTO 26004KT 9999 OVC004 13/13 Q1018 BECMG BKN005
  • 270430Z AUTO 26004KT 220V280 9999 OVC006 13/13 Q1018 NOSIG
  • 270400Z AUTO 24004KT 9999 OVC005 13/13 Q1018 NOSIG
  • 270330Z AUTO 28004KT 260V340 9999 SCT005 BKN009 BKN022 13/12 Q1018 NOSIG
  • 270300Z AUTO 28005KT 9999 BKN005 BKN011 OVC017 13/13 Q1018 NOSIG

TAF TAF LFBM
Valide du 27 à 03h jusqu'au 28 à 03h UTC


270200Z 2703/2803 27010KT 9999 BKN005
BECMG 2708/2711 SCT010 BKN020
Pas de NOTAMs connus pour ce terrain.



MET'MAP, la Météo Aéronautique d'un coup d'oeil ! - Copyright ORBIFLY Décembre 2007 - Disclaimer

ORBIFLY MET'MAP TEAM :

Programmation & Développement : Alexandra Zaïnal
Conception & Développement : Baudouin d'Aumeries
Co-Programmation & Développement : Marc-Olivier Méhu
Soutien technique & logistique : Manuel Goepfert

Contact : metmap@orbifly.com




SOURCES & CREDITS :

   NOAA